Time;durP1;ratioP1;P1;durP2;ratioP2;P2;SDS_P1;SDS_P2;PMS_P1;PMS_P2;Temp;Humidity;BMP_temperature;BMP_pressure;BME280_temperature;BME280_humidity;BME280_pressure;Samples;Min_cycle;Max_cycle;Signal;HPM_P1;HPM_P2
2022/08/26 00:00:34;;;;;;;23.00;9.13;;;;;;;23.37;53.85;100871.94;5033611;28;20049;-53
2022/08/26 00:03:01;;;;;;;27.45;9.50;;;;;;;23.38;54.58;100864.66;4998433;28;20510;-53
2022/08/26 00:05:27;;;;;;;19.02;10.25;;;;;;;23.34;55.52;100866.19;5029062;28;20042;-52
2022/08/26 00:07:54;;;;;;;22.27;10.23;;;;;;;23.23;55.43;100864.28;5031200;28;20037;-53
2022/08/26 00:10:21;;;;;;;21.77;9.95;;;;;;;23.17;55.66;100863.34;5033590;28;20056;-55
2022/08/26 00:12:48;;;;;;;20.23;10.20;;;;;;;23.26;55.63;100867.34;5032832;28;20132;-52
2022/08/26 00:15:21;;;;;;;20.17;9.30;;;;;;;23.17;55.58;100869.59;5033096;28;20057;-53
2022/08/26 00:17:50;;;;;;;23.38;8.98;;;;;;;23.14;56.07;100867.38;5033906;28;20557;-53
2022/08/26 00:20:20;;;;;;;23.27;11.63;;;;;;;23.17;56.97;100869.59;5031281;28;20561;-51
2022/08/26 00:22:47;;;;;;;21.15;11.05;;;;;;;23.03;57.31;100872.72;4953205;28;20045;-52
2022/08/26 00:25:15;;;;;;;23.02;12.75;;;;;;;23.17;57.43;100885.81;5032379;28;20112;-53
2022/08/26 00:27:42;;;;;;;33.70;14.98;;;;;;;23.10;58.10;100890.53;5033637;28;20502;-53
2022/08/26 00:30:15;;;;;;;24.60;15.25;;;;;;;22.99;58.82;100894.00;5030958;28;20041;-51
2022/08/26 00:32:42;;;;;;;22.70;13.77;;;;;;;22.83;59.71;100895.53;5032440;28;20049;-53
2022/08/26 00:35:10;;;;;;;31.30;18.45;;;;;;;22.79;60.96;100894.31;5028192;28;20100;-54
2022/08/26 00:37:40;;;;;;;30.13;18.80;;;;;;;22.68;61.75;100898.63;5033279;28;20040;-53
2022/08/26 00:40:12;;;;;;;41.50;20.98;;;;;;;22.71;61.91;100902.78;5030888;28;20690;-53
2022/08/26 00:42:38;;;;;;;;;;;;;;;22.81;62.76;100906.56;5032766;28;20065;-53
2022/08/26 00:45:06;;;;;;;44.72;27.15;;;;;;;22.81;63.08;100897.63;5048174;28;19924;-54
2022/08/26 00:47:39;;;;;;;44.20;26.92;;;;;;;22.77;63.70;100896.44;5031009;28;20044;-52
2022/08/26 00:50:10;;;;;;;50.00;27.10;;;;;;;22.68;64.48;100903.22;5032292;28;20980;-53
2022/08/26 00:52:37;;;;;;;52.00;28.35;;;;;;;22.69;65.01;100904.88;5030484;28;20049;-52
2022/08/26 00:55:12;;;;;;;47.10;31.75;;;;;;;22.83;64.69;100909.06;5033287;28;20045;-54
2022/08/26 00:57:40;;;;;;;55.65;34.05;;;;;;;22.78;65.15;100908.91;5033231;28;20040;-54
2022/08/26 01:00:12;;;;;;;53.60;34.88;;;;;;;22.72;65.81;100909.81;5032030;28;20095;-54
2022/08/26 01:02:40;;;;;;;56.95;33.47;;;;;;;22.67;66.44;100912.41;5031149;28;20056;-55
2022/08/26 01:05:10;;;;;;;56.88;38.08;;;;;;;22.47;67.42;100912.69;5032030;28;20045;-55
2022/08/26 01:07:38;;;;;;;57.88;36.88;;;;;;;22.56;67.69;100916.72;5027036;28;20092;-55
2022/08/26 01:10:10;;;;;;;54.83;38.83;;;;;;;22.53;67.75;100920.69;5032237;28;20096;-54
2022/08/26 01:12:45;;;;;;;58.38;40.45;;;;;;;22.59;68.33;100919.78;5031158;28;20049;-56
2022/08/26 01:15:19;;;;;;;67.28;42.95;;;;;;;22.32;69.31;100907.66;5013473;28;20046;-54
2022/08/26 01:17:46;;;;;;;58.25;43.08;;;;;;;22.36;69.10;100914.28;5032158;28;20443;-55
2022/08/26 01:23:15;;;;;;;64.60;43.92;;;;;;;22.35;69.85;100912.63;5073017;27;20396;-54
2022/08/26 01:25:47;;;;;;;60.05;42.88;;;;;;;22.32;70.20;100921.19;5095581;28;20489;-54
2022/08/26 01:28:15;;;;;;;;;;;;;;;22.61;69.31;100922.25;5090596;28;20068;-54
2022/08/26 01:30:44;;;;;;;64.72;45.30;;;;;;;22.46;69.79;100921.84;5090049;28;19970;-52
2022/08/26 01:33:16;;;;;;;64.32;43.97;;;;;;;22.35;70.70;100926.13;5104225;28;20044;-54
2022/08/26 01:35:43;;;;;;;;;;;;;;;22.25;71.36;100929.34;5089760;28;20067;-54
2022/08/26 01:38:11;;;;;;;66.47;46.97;;;;;;;22.25;71.46;100926.66;5086133;28;20282;-54
2022/08/26 01:40:42;;;;;;;68.40;46.28;;;;;;;22.14;71.85;100922.00;5086048;28;20086;-53
2022/08/26 01:43:15;;;;;;;66.13;47.50;;;;;;;22.24;71.54;100931.22;5089981;28;20051;-54
2022/08/26 01:45:43;;;;;;;66.40;48.13;;;;;;;22.11;71.94;100936.78;5089773;28;20040;-54
2022/08/26 01:48:15;;;;;;;66.80;47.50;;;;;;;22.14;72.18;100939.03;5090020;28;20051;-54
2022/08/26 01:50:43;;;;;;;67.28;47.40;;;;;;;22.12;72.85;100941.16;5089608;28;20047;-53
2022/08/26 01:53:15;;;;;;;69.82;49.30;;;;;;;22.13;72.87;100941.97;5090387;28;20044;-54
2022/08/26 01:55:45;;;;;;;67.68;47.35;;;;;;;22.05;73.23;100940.41;5089037;28;20122;-54
2022/08/26 01:58:17;;;;;;;70.20;47.63;;;;;;;21.98;73.36;100951.28;5084721;28;20054;-53
2022/08/26 02:00:44;;;;;;;69.50;46.88;;;;;;;22.01;73.66;100949.97;5060448;28;20055;-54
2022/08/26 02:03:20;;;;;;;68.65;50.42;;;;;;;22.02;73.61;100952.47;5089027;28;20048;-53
2022/08/26 02:06:06;;;;;;;63.15;47.35;;;;;;;21.97;73.55;100946.09;5089467;28;20064;-55
2022/08/26 02:08:51;;;;;;;68.68;47.13;;;;;;;21.95;73.89;100957.09;5090211;28;20044;-53
2022/08/26 02:11:18;;;;;;;72.20;46.75;;;;;;;21.99;74.33;100952.09;5085215;28;20131;-54
2022/08/26 02:13:51;;;;;;;66.55;46.95;;;;;;;21.91;74.66;100961.31;5104671;28;20402;-55
2022/08/26 02:16:21;;;;;;;71.72;49.08;;;;;;;22.02;74.23;100965.97;5089263;28;20063;-54
2022/08/26 02:18:49;;;;;;;69.25;46.65;;;;;;;21.92;74.75;100973.78;5088560;28;20131;-54
2022/08/26 02:21:16;;;;;;;63.00;45.13;;;;;;;21.92;74.42;100968.38;5088807;28;20048;-55
2022/08/26 02:23:43;;;;;;;67.78;46.00;;;;;;;21.89;75.17;100968.81;5051195;28;20520;-53
2022/08/26 02:26:14;;;;;;;59.70;46.13;;;;;;;21.83;75.56;100967.03;5105336;28;20049;-54
2022/08/26 02:28:49;;;;;;;64.72;46.45;;;;;;;21.78;76.39;100977.66;5089332;28;20438;-53
2022/08/26 02:31:16;;;;;;;69.30;44.75;;;;;;;21.70;76.35;100972.53;5087552;28;20048;-53
2022/08/26 02:33:43;;;;;;;63.90;45.85;;;;;;;21.74;76.44;100977.28;5080866;28;20094;-53
2022/08/26 02:36:10;;;;;;;70.00;44.97;;;;;;;21.62;76.86;100976.34;5091597;28;20502;-52
2022/08/26 02:38:37;;;;;;;65.25;44.58;;;;;;;21.70;76.69;100973.34;5074437;28;20127;-54
2022/08/26 02:41:04;;;;;;;59.22;43.28;;;;;;;21.71;77.43;100977.72;5075789;28;20095;-54
2022/08/26 02:43:31;;;;;;;60.60;42.47;;;;;;;21.54;77.59;100974.75;5095444;28;20097;-54
2022/08/26 02:45:59;;;;;;;58.58;44.40;;;;;;;21.59;77.98;100968.69;5077662;28;20048;-54
2022/08/26 02:48:27;;;;;;;64.60;42.28;;;;;;;21.39;78.93;100969.69;5071633;28;20040;-53
2022/08/26 02:50:53;;;;;;;59.05;40.60;;;;;;;21.35;79.30;100975.72;5074686;28;20041;-54
2022/08/26 02:53:20;;;;;;;53.90;39.67;;;;;;;21.46;78.96;100970.44;5075324;28;20049;-53
2022/08/26 02:55:50;;;;;;;58.17;39.90;;;;;;;21.41;79.14;100967.59;5075114;28;20482;-54
2022/08/26 02:58:17;;;;;;;59.95;40.13;;;;;;;21.43;79.95;100976.28;5075326;28;20052;-54
2022/08/26 03:00:46;;;;;;;58.75;40.92;;;;;;;21.38;80.11;100981.50;5074704;28;20509;-53
2022/08/26 03:03:14;;;;;;;59.38;39.90;;;;;;;21.50;79.98;100968.13;5075029;28;20387;-51
2022/08/26 03:05:41;;;;;;;58.15;38.45;;;;;;;21.53;80.26;100973.09;5074969;28;20048;-54
2022/08/26 03:08:10;;;;;;;52.40;38.60;;;;;;;21.45;80.32;100968.00;5075453;28;20052;-53
2022/08/26 03:10:38;;;;;;;57.63;39.58;;;;;;;21.48;80.74;100964.84;5071992;28;20052;-54
2022/08/26 03:13:04;;;;;;;58.65;39.42;;;;;;;21.43;80.28;100976.28;5074872;28;20093;-53
2022/08/26 03:15:32;;;;;;;61.08;40.67;;;;;;;21.47;80.91;100968.59;5064524;28;20409;-53
2022/08/26 03:17:58;;;;;;;61.92;39.88;;;;;;;21.50;80.70;100972.72;5068383;28;20084;-54
2022/08/26 03:20:25;;;;;;;62.05;40.70;;;;;;;21.48;81.07;100972.94;5072891;28;20489;-54
2022/08/26 03:22:52;;;;;;;58.85;40.97;;;;;;;21.52;81.12;100970.63;5036752;28;20041;-53
2022/08/26 03:25:21;;;;;;;57.30;38.85;;;;;;;21.54;80.92;100969.38;5074899;28;20048;-53
2022/08/26 03:27:47;;;;;;;57.85;38.95;;;;;;;21.46;81.13;100967.75;5066863;28;20201;-53
2022/08/26 03:30:47;;;;;;;56.35;37.50;;;;;;;21.38;81.60;100959.91;5075193;28;20047;-52
2022/08/26 03:33:03;;;;;;;61.85;36.63;;;;;;;21.41;81.67;100975.69;5068338;28;20033;-54
2022/08/26 03:35:31;;;;;;;62.95;38.33;;;;;;;21.41;81.83;100964.88;5074388;28;20055;-54
2022/08/26 03:38:00;;;;;;;59.72;38.30;;;;;;;21.50;81.69;100964.63;5072923;28;20041;-54
2022/08/26 03:40:27;;;;;;;62.55;37.47;;;;;;;21.53;81.29;100969.59;5072795;28;20032;-53
2022/08/26 03:42:54;;;;;;;54.35;36.65;;;;;;;21.47;81.10;100971.28;5074467;28;20127;-54
2022/08/26 03:45:21;;;;;;;60.33;38.67;;;;;;;21.59;81.37;100969.53;5073117;28;20489;-54
2022/08/26 03:47:47;;;;;;;63.00;36.80;;;;;;;21.58;81.17;100975.16;5065388;28;20491;-53
2022/08/26 03:50:17;;;;;;;57.83;37.97;;;;;;;21.66;80.80;100964.06;5054307;28;20048;-54
2022/08/26 03:52:46;;;;;;;61.63;37.33;;;;;;;21.54;81.29;100974.75;5047534;28;20124;-54
2022/08/26 03:55:14;;;;;;;53.50;36.78;;;;;;;21.67;80.59;100973.81;5070347;28;20040;-52
2022/08/26 03:57:41;;;;;;;60.17;36.65;;;;;;;21.65;80.94;100979.44;5073054;28;20087;-53
2022/08/26 04:00:13;;;;;;;64.50;36.58;;;;;;;21.58;81.28;100988.66;5072939;28;20075;-53
2022/08/26 04:02:44;;;;;;;55.40;35.20;;;;;;;21.55;81.34;100975.59;5054616;28;20055;-52
2022/08/26 04:05:13;;;;;;;63.38;37.00;;;;;;;21.44;81.07;100986.00;5072720;28;20075;-54
2022/08/26 04:07:41;;;;;;;52.10;34.33;;;;;;;21.49;81.72;100984.56;5072928;28;20071;-52
2022/08/26 04:10:10;;;;;;;58.45;36.15;;;;;;;21.57;80.99;100982.41;5073064;28;20461;-54
2022/08/26 04:12:38;;;;;;;51.25;35.42;;;;;;;21.56;80.86;100978.06;5070414;28;20079;-54
2022/08/26 04:15:08;;;;;;;56.25;34.13;;;;;;;21.41;80.86;100981.06;5071750;28;20539;-54
2022/08/26 04:17:35;;;;;;;51.67;32.55;;;;;;;21.50;80.98;100980.81;5072582;28;20380;-53
2022/08/26 04:20:05;;;;;;;49.95;33.53;;;;;;;21.53;81.33;100972.28;5073588;28;20089;-54
2022/08/26 04:22:33;;;;;;;55.70;31.52;;;;;;;21.60;81.02;100984.66;5019265;28;20342;-54
2022/08/26 04:25:00;;;;;;;56.15;31.60;;;;;;;21.55;80.85;100981.78;5065682;28;20045;-54
2022/08/26 04:27:27;;;;;;;51.60;29.40;;;;;;;21.46;81.45;100986.63;5073637;28;20043;-54
2022/08/26 04:29:53;;;;;;;42.67;27.77;;;;;;;21.58;81.14;100984.06;5073167;28;20086;-52
2022/08/26 04:32:20;;;;;;;45.30;27.75;;;;;;;21.61;80.98;100980.09;5072012;28;20041;-53
2022/08/26 04:34:47;;;;;;;47.55;26.08;;;;;;;21.57;80.77;100981.59;5072986;28;20158;-54
2022/08/26 04:37:15;;;;;;;45.70;25.90;;;;;;;21.52;81.06;100982.25;5073619;28;20044;-53
2022/08/26 04:39:41;;;;;;;42.55;25.58;;;;;;;21.49;81.31;100993.50;5072599;28;20052;-53
2022/08/26 04:42:09;;;;;;;45.70;26.10;;;;;;;21.47;81.28;100990.19;5077938;28;20052;-54
2022/08/26 04:44:36;;;;;;;47.45;26.35;;;;;;;21.46;81.64;100996.63;5077708;28;20119;-54
2022/08/26 04:47:03;;;;;;;37.00;25.25;;;;;;;21.52;81.22;100989.50;5052821;28;20041;-53
2022/08/26 04:49:30;;;;;;;50.13;25.63;;;;;;;21.47;81.38;100985.59;5072100;28;20049;-54
2022/08/26 04:51:57;;;;;;;45.55;25.05;;;;;;;21.40;81.72;100992.09;5069963;28;20429;-54
2022/08/26 04:54:25;;;;;;;41.80;23.75;;;;;;;21.53;81.23;100999.28;5070815;28;20494;-54
2022/08/26 04:56:52;;;;;;;42.70;22.98;;;;;;;21.53;81.27;100999.28;5073097;28;20564;-54
2022/08/26 04:59:18;;;;;;;44.70;22.10;;;;;;;21.44;81.43;100999.50;5072616;28;20060;-55
2022/08/26 05:01:48;;;;;;;41.97;22.77;;;;;;;21.52;81.29;100998.44;5068521;28;20513;-54
2022/08/26 05:04:17;;;;;;;37.80;21.88;;;;;;;21.63;80.58;100996.91;5072230;28;20049;-55
2022/08/26 05:06:43;;;;;;;39.22;22.13;;;;;;;21.66;80.43;100993.75;5073059;28;20485;-53
2022/08/26 05:09:13;;;;;;;42.00;20.55;;;;;;;21.59;80.05;100999.22;5057460;28;20155;-54
2022/08/26 05:11:40;;;;;;;36.60;21.45;;;;;;;21.67;80.24;101001.63;5073181;28;20040;-54
2022/08/26 05:14:06;;;;;;;35.72;21.90;;;;;;;21.66;79.90;100993.75;5070394;28;20041;-54
2022/08/26 05:16:33;;;;;;;37.35;22.10;;;;;;;21.66;80.30;100999.97;5072549;28;20474;-54
2022/08/26 05:19:00;;;;;;;45.55;21.90;;;;;;;21.65;80.00;101003.72;5076114;28;20407;-54
2022/08/26 05:21:27;;;;;;;42.35;20.40;;;;;;;21.69;80.05;101000.59;5070684;28;20163;-55
2022/08/26 05:23:54;;;;;;;42.47;20.98;;;;;;;21.60;80.47;101002.75;5027753;28;20072;-54
2022/08/26 05:26:23;;;;;;;41.38;21.05;;;;;;;21.63;80.27;101000.44;5073017;28;20490;-54
2022/08/26 05:28:51;;;;;;;41.47;21.33;;;;;;;21.72;79.85;100998.28;5072174;28;20079;-55
2022/08/26 05:31:22;;;;;;;40.03;21.55;;;;;;;21.61;79.77;101004.38;5072154;28;20486;-54
2022/08/26 05:33:49;;;;;;;;;;;;;;;21.67;79.50;101003.50;5073002;28;20047;-54
2022/08/26 05:36:19;;;;;;;34.17;19.73;;;;;;;21.71;79.45;101003.91;5072465;28;19921;-54
2022/08/26 05:38:47;;;;;;;37.28;19.33;;;;;;;21.69;79.32;101006.81;5066890;28;20052;-54
2022/08/26 05:41:20;;;;;;;40.55;20.70;;;;;;;21.61;79.21;101009.78;5052048;28;20059;-54
2022/08/26 05:43:47;;;;;;;39.55;18.83;;;;;;;21.62;79.53;101011.44;5058226;28;20037;-54
2022/08/26 05:46:14;;;;;;;41.47;19.40;;;;;;;21.63;79.72;101013.91;5072330;28;20494;-55
2022/08/26 05:48:41;;;;;;;32.15;18.30;;;;;;;21.66;79.20;101008.06;5071266;28;20049;-53
2022/08/26 05:51:09;;;;;;;38.67;18.70;;;;;;;21.61;78.78;101005.22;5070837;28;20435;-56
2022/08/26 05:53:39;;;;;;;39.20;17.85;;;;;;;21.71;78.80;101006.59;5085944;28;20048;-53
2022/08/26 05:56:08;;;;;;;35.58;17.20;;;;;;;21.81;78.77;101012.28;5075356;28;20105;-54
2022/08/26 05:58:36;;;;;;;37.03;16.75;;;;;;;21.69;78.54;101006.00;5071479;28;20045;-53
2022/08/26 06:01:07;;;;;;;30.50;16.30;;;;;;;21.63;78.97;101010.41;5071991;28;20040;-53
2022/08/26 06:03:37;;;;;;;29.77;16.27;;;;;;;21.80;78.24;101016.06;5067919;28;20056;-53
2022/08/26 06:06:08;;;;;;;32.30;16.50;;;;;;;21.81;78.04;101021.25;5072399;28;20056;-54
2022/08/26 06:08:35;;;;;;;37.65;17.08;;;;;;;21.74;77.79;101014.22;5069656;28;20154;-53
2022/08/26 06:11:05;;;;;;;34.83;16.90;;;;;;;21.64;77.86;101020.97;5075479;28;20044;-53
2022/08/26 06:13:33;;;;;;;29.42;15.55;;;;;;;21.75;78.21;101027.50;5069768;28;20500;-53
2022/08/26 06:16:04;;;;;;;32.03;15.55;;;;;;;21.88;77.32;101023.03;5073343;28;20037;-54
2022/08/26 06:18:35;;;;;;;28.30;15.48;;;;;;;21.79;77.45;101012.53;5071917;28;20079;-54
2022/08/26 06:21:29;;;;;;;28.38;14.85;;;;;;;21.74;77.78;101017.78;5075338;28;20037;-54
2022/08/26 06:26:49;;;;;;;28.48;15.05;;;;;;;21.64;77.83;101039.84;5073585;28;20494;-53
2022/08/26 06:29:16;;;;;;;29.52;15.63;;;;;;;21.67;77.59;101023.22;5075658;28;20091;-54
2022/08/26 06:31:43;;;;;;;32.90;15.75;;;;;;;21.60;78.27;101032.44;5075262;28;20409;-53
2022/08/26 06:34:10;;;;;;;32.05;15.25;;;;;;;21.70;77.73;101027.34;5074226;28;20045;-54
2022/08/26 06:36:39;;;;;;;28.50;15.63;;;;;;;21.94;76.96;101030.25;5075363;28;20465;-54
2022/08/26 06:39:09;;;;;;;34.13;14.43;;;;;;;21.92;76.65;101037.75;5074323;28;20048;-55
2022/08/26 06:41:37;;;;;;;32.67;15.95;;;;;;;21.83;77.12;101045.34;5074244;28;20056;-53
2022/08/26 06:44:14;;;;;;;25.13;14.85;;;;;;;21.76;76.87;101037.28;5086226;28;20040;-54
2022/08/26 06:46:42;;;;;;;35.45;15.35;;;;;;;21.74;77.21;101035.81;5072906;28;20040;-54
2022/08/26 06:49:09;;;;;;;28.33;14.55;;;;;;;21.79;77.78;101042.25;5073412;28;20102;-57
2022/08/26 06:51:38;;;;;;;31.23;14.05;;;;;;;21.92;76.64;101037.75;5075334;28;20117;-56
2022/08/26 06:54:06;;;;;;;27.95;14.05;;;;;;;21.93;76.16;101037.53;5074498;28;20083;-57
2022/08/26 06:56:37;;;;;;;28.63;14.90;;;;;;;21.83;76.45;101043.44;5075306;28;20051;-58
2022/08/26 06:59:05;;;;;;;35.33;13.60;;;;;;;21.95;76.01;101048.94;5073334;28;20069;-56
2022/08/26 07:01:35;;;;;;;30.35;14.00;;;;;;;21.88;76.89;101047.34;5068248;28;20757;-56
2022/08/26 07:04:05;;;;;;;27.17;13.63;;;;;;;21.94;75.83;101044.59;5070931;28;20063;-56
2022/08/26 07:06:37;;;;;;;30.55;14.43;;;;;;;21.81;76.72;101047.41;5087499;28;20052;-56
2022/08/26 07:09:06;;;;;;;25.15;13.10;;;;;;;21.69;76.70;101041.09;5072725;28;20367;-56
2022/08/26 07:11:34;;;;;;;31.70;13.60;;;;;;;21.70;76.18;101048.94;5077100;28;20090;-56
2022/08/26 07:14:01;;;;;;;29.60;14.55;;;;;;;21.66;76.41;101045.84;5075295;28;20067;-56
2022/08/26 07:16:28;;;;;;;34.83;14.63;;;;;;;21.58;77.04;101050.72;5069208;28;20072;-56
2022/08/26 07:18:56;;;;;;;26.70;13.25;;;;;;;21.68;76.87;101053.75;5075204;28;20051;-56
2022/08/26 07:21:23;;;;;;;26.42;11.77;;;;;;;21.70;76.87;101054.34;5079441;28;20170;-57
2022/08/26 07:23:52;;;;;;;31.73;13.85;;;;;;;21.73;77.02;101056.59;5017717;28;20051;-57
2022/08/26 07:26:26;;;;;;;31.03;12.60;;;;;;;21.65;77.12;101056.91;5054862;28;20052;-56
2022/08/26 07:28:53;;;;;;;;;;;;;;;21.63;77.13;101054.41;5055186;28;20049;-56
2022/08/26 07:31:22;;;;;;;26.60;12.00;;;;;;;21.62;77.14;101052.75;5054159;28;20367;-56
2022/08/26 07:33:49;;;;;;;23.45;11.68;;;;;;;21.63;77.12;101064.41;5063891;28;20436;-56
2022/08/26 07:36:20;;;;;;;28.55;11.38;;;;;;;21.65;77.17;101065.81;5073871;28;20050;-56
2022/08/26 07:38:47;;;;;;;25.85;11.15;;;;;;;21.69;77.21;101070.78;5073983;28;20098;-57
2022/08/26 07:41:16;;;;;;;28.67;10.88;;;;;;;21.67;76.97;101071.00;5070564;28;20075;-57
2022/08/26 07:43:44;;;;;;;22.88;11.32;;;;;;;21.59;76.68;101072.09;5073193;28;20094;-57
2022/08/26 07:46:17;;;;;;;23.35;12.40;;;;;;;21.64;76.23;101074.13;5070381;28;20040;-57
2022/08/26 07:48:45;;;;;;;24.17;10.68;;;;;;;21.82;75.78;101073.38;5072008;28;20035;-57
2022/08/26 07:51:13;;;;;;;29.73;12.65;;;;;;;21.93;74.61;101074.53;5072589;28;20490;-57
2022/08/26 07:53:42;;;;;;;41.92;22.67;;;;;;;22.15;73.79;101073.06;5071281;28;20498;-57
2022/08/26 07:56:09;;;;;;;21.40;11.82;;;;;;;22.10;73.19;101082.88;5068163;28;20223;-57
2022/08/26 07:58:36;;;;;;;28.30;13.40;;;;;;;21.97;74.16;101086.53;5073257;28;20098;-57
2022/08/26 08:01:03;;;;;;;29.77;15.98;;;;;;;21.83;73.88;101083.13;5074398;28;20199;-57
2022/08/26 08:03:30;;;;;;;26.92;12.43;;;;;;;21.81;74.30;101090.59;5072585;28;20041;-57
2022/08/26 08:05:57;;;;;;;28.15;13.95;;;;;;;21.89;74.14;101092.22;5072286;28;20040;-57
2022/08/26 08:08:24;;;;;;;25.95;12.32;;;;;;;21.92;73.81;101089.06;5070855;28;20390;-57
2022/08/26 08:10:50;;;;;;;23.27;11.70;;;;;;;21.81;74.23;101093.31;5072097;28;20510;-57
2022/08/26 08:13:17;;;;;;;26.92;12.45;;;;;;;21.72;73.97;101095.47;5072825;28;20037;-57
2022/08/26 08:15:44;;;;;;;27.70;11.30;;;;;;;21.65;74.32;101086.59;5067810;28;20040;-57
2022/08/26 08:18:11;;;;;;;22.55;10.45;;;;;;;21.62;74.26;101090.53;5067649;28;20080;-57
2022/08/26 08:20:37;;;;;;;23.08;11.27;;;;;;;21.74;74.19;101093.38;5067736;28;20045;-57
2022/08/26 08:23:05;;;;;;;24.77;11.32;;;;;;;21.69;74.10;101084.28;5029432;28;20056;-57
2022/08/26 08:25:33;;;;;;;24.25;10.30;;;;;;;21.76;74.07;101090.47;5070983;28;20056;-57
2022/08/26 08:28:00;;;;;;;22.80;10.73;;;;;;;21.87;73.39;101091.63;5073112;28;20040;-56
2022/08/26 08:30:27;;;;;;;23.25;9.77;;;;;;;22.01;73.19;101095.84;5073095;28;20048;-56
2022/08/26 08:32:55;;;;;;;20.15;9.57;;;;;;;21.98;73.09;101101.69;5072303;28;20067;-56
2022/08/26 08:35:25;;;;;;;23.92;8.82;;;;;;;22.13;72.27;101099.47;5072070;28;20083;-58
2022/08/26 08:37:55;;;;;;;19.80;8.55;;;;;;;22.13;72.15;101096.75;5070815;28;20040;-57
2022/08/26 08:40:25;;;;;;;24.95;8.60;;;;;;;22.12;71.92;101105.94;5070529;28;20091;-57
2022/08/26 08:43:13;;;;;;;24.75;8.07;;;;;;;22.10;71.95;101109.91;5072590;28;20084;-57
2022/08/26 08:45:48;;;;;;;18.65;7.50;;;;;;;21.95;72.22;101107.53;5065212;28;20049;-57
2022/08/26 08:48:22;;;;;;;17.73;7.97;;;;;;;21.89;72.02;101103.03;5071115;28;20128;-56
2022/08/26 08:50:52;;;;;;;17.73;7.38;;;;;;;21.82;72.81;101105.78;5070616;28;20116;-57
2022/08/26 08:53:38;;;;;;;23.30;7.80;;;;;;;21.75;72.93;101097.72;5067576;28;20097;-57
2022/08/26 08:56:22;;;;;;;19.05;7.75;;;;;;;21.83;73.06;101096.63;5072157;28;20075;-57
2022/08/26 08:59:00;;;;;;;19.92;6.97;;;;;;;21.76;72.82;101096.69;5071500;28;20032;-57
2022/08/26 09:01:55;;;;;;;21.38;6.88;;;;;;;21.74;73.58;101092.53;5073065;28;20122;-57
2022/08/26 09:07:30;;;;;;;16.50;7.10;;;;;;;21.83;72.39;101097.44;5045673;28;20747;-55
2022/08/26 09:10:21;;;;;;;17.42;7.05;;;;;;;21.94;72.27;101105.88;5042544;28;20045;-55
2022/08/26 09:12:49;;;;;;;17.38;7.80;;;;;;;21.92;72.19;101099.88;5045251;28;20045;-55
2022/08/26 09:15:37;;;;;;;17.05;7.10;;;;;;;22.00;72.13;101103.13;5042991;27;20045;-56
2022/08/26 09:18:33;;;;;;;20.38;7.18;;;;;;;22.16;71.20;101106.31;5045100;27;20498;-55
2022/08/26 09:21:04;;;;;;;20.27;7.50;;;;;;;21.94;72.10;101108.56;5045472;27;20041;-55
2022/08/26 09:23:34;;;;;;;23.27;7.18;;;;;;;21.90;71.78;101110.06;4996918;28;20045;-55
2022/08/26 09:26:32;;;;;;;23.63;8.18;;;;;;;21.98;72.03;101109.81;5041377;28;20045;-55
2022/08/26 09:29:01;;;;;;;16.15;7.35;;;;;;;22.03;71.49;101110.78;5043282;28;20049;-55
2022/08/26 09:31:31;;;;;;;14.60;6.97;;;;;;;22.03;71.70;101118.06;5043197;28;20054;-56
2022/08/26 09:34:10;;;;;;;19.92;7.32;;;;;;;22.10;71.53;101115.28;5045072;28;20049;-55
2022/08/26 09:36:43;;;;;;;20.48;6.78;;;;;;;22.21;70.96;101104.59;5044929;28;20053;-56
2022/08/26 09:39:33;;;;;;;17.80;6.05;;;;;;;22.27;71.14;101111.03;5130686;27;20052;-56
2022/08/26 09:42:10;;;;;;;18.95;6.15;;;;;;;22.19;70.33;101116.66;5027075;28;20128;-55
2022/08/26 09:44:58;;;;;;;20.23;5.43;;;;;;;22.21;70.79;101114.56;5044733;28;20486;-56
2022/08/26 09:47:30;;;;;;;18.25;5.90;;;;;;;22.26;70.63;101119.31;5028195;28;20068;-55
2022/08/26 09:50:10;;;;;;;19.55;6.18;;;;;;;22.23;70.60;101115.19;5043409;28;20045;-55
2022/08/26 09:52:37;;;;;;;22.42;5.97;;;;;;;22.38;69.45;101104.88;5056012;27;20042;-55
2022/08/26 09:55:11;;;;;;;19.20;6.50;;;;;;;22.31;69.68;101108.69;5038198;28;20032;-55
2022/08/26 09:57:54;;;;;;;23.13;6.05;;;;;;;22.37;70.10;101110.50;5056089;27;20053;-57
2022/08/26 10:03:03;;;;;;;16.08;6.47;;;;;;;22.47;69.85;101107.28;5074007;28;20385;-56
2022/08/26 10:05:40;;;;;;;20.75;6.35;;;;;;;22.50;69.39;101101.41;5078220;28;20119;-56
2022/08/26 10:08:19;;;;;;;21.05;6.40;;;;;;;22.60;69.19;101102.56;5066705;28;20044;-56
2022/08/26 10:10:47;;;;;;;17.63;6.35;;;;;;;22.49;68.88;101108.72;5066790;28;20036;-54
2022/08/26 10:13:24;;;;;;;19.65;6.68;;;;;;;22.45;69.10;101102.13;5069087;28;20049;-55
2022/08/26 10:16:04;;;;;;;20.90;6.57;;;;;;;22.46;69.32;101103.75;5080648;28;20044;-54
2022/08/26 10:18:36;;;;;;;19.65;6.65;;;;;;;22.37;68.91;101096.97;5055914;28;20049;-53
2022/08/26 10:21:18;;;;;;;23.08;6.05;;;;;;;22.46;69.41;101095.63;5059055;28;20097;-54
2022/08/26 10:23:50;;;;;;;19.38;5.75;;;;;;;22.52;68.42;101096.63;4973509;28;20040;-55
2022/08/26 10:26:24;;;;;;;16.55;5.60;;;;;;;22.51;68.55;101098.50;5079594;28;20045;-54
2022/08/26 10:29:00;;;;;;;17.58;5.70;;;;;;;22.60;68.73;101090.91;5069614;28;20045;-54
2022/08/26 10:31:36;;;;;;;20.85;5.97;;;;;;;22.63;68.36;101098.59;5069272;28;20110;-54
2022/08/26 10:34:03;;;;;;;22.05;5.90;;;;;;;22.59;68.00;101100.91;5060173;28;20041;-55
2022/08/26 10:36:52;;;;;;;18.33;5.47;;;;;;;22.72;67.97;101096.38;5081780;28;20076;-55
2022/08/26 10:39:43;;;;;;;20.67;5.20;;;;;;;22.67;68.32;101098.97;5078134;28;20591;-55
2022/08/26 10:44:58;;;;;;;22.17;4.50;;;;;;;22.82;67.64;101096.69;5127270;27;20376;-54
2022/08/26 10:47:36;;;;;;;23.23;5.03;;;;;;;22.79;67.22;101089.88;5118578;28;20046;-53
2022/08/26 10:50:04;;;;;;;19.55;4.95;;;;;;;22.87;66.80;101096.03;5117654;27;20036;-54
2022/08/26 10:52:56;;;;;;;17.52;4.60;;;;;;;22.94;66.68;101096.75;5112806;28;20370;-54
2022/08/26 10:55:37;;;;;;;21.23;4.68;;;;;;;22.95;66.23;101095.69;5123594;27;20489;-55
2022/08/26 10:58:32;;;;;;;17.48;5.15;;;;;;;23.07;66.25;101087.69;5122741;28;20059;-55
2022/08/26 11:01:44;;;;;;;20.88;5.40;;;;;;;23.24;65.38;101091.38;5096074;28;20400;-53
2022/08/26 11:04:09;;;;;;;23.23;5.93;;;;;;;23.35;63.60;101092.47;5121728;28;20058;-53
2022/08/26 11:06:35;;;;;;;19.35;5.88;;;;;;;23.42;63.04;101087.78;5113405;27;20164;-53
2022/08/26 11:09:05;;;;;;;19.42;5.80;;;;;;;23.54;63.26;101091.38;5112023;27;20028;-55
2022/08/26 11:16:58;;;;;;;18.00;5.82;;;;;;;23.64;62.46;101090.78;5048583;28;20370;-56
2022/08/26 11:22:36;;;;;;;16.33;5.70;;;;;;;23.84;62.91;101087.78;5078082;27;21124;-56
2022/08/26 11:25:07;;;;;;;17.05;6.05;;;;;;;23.78;62.14;101091.41;5096506;28;20044;-55
2022/08/26 11:32:54;;;;;;;21.83;5.32;;;;;;;23.85;62.18;101070.50;5079249;28;20375;-56
2022/08/26 11:38:00;;;;;;;16.70;4.45;;;;;;;23.79;62.57;101078.69;5103582;27;20372;-55
2022/08/26 11:40:31;;;;;;;23.20;5.15;;;;;;;23.75;62.96;101073.72;5088546;28;20070;-55
2022/08/26 11:43:04;;;;;;;18.98;4.57;;;;;;;23.80;63.04;101073.06;5079584;28;20036;-55
2022/08/26 11:45:44;;;;;;;16.33;4.15;;;;;;;23.76;62.95;101075.38;5086100;28;20127;-56
2022/08/26 11:48:29;;;;;;;15.60;4.47;;;;;;;23.64;62.76;101077.25;5090768;28;20437;-56
2022/08/26 11:51:03;;;;;;;13.77;4.10;;;;;;;23.56;63.92;101069.47;5086687;28;20097;-56
2022/08/26 11:53:33;;;;;;;23.50;4.07;;;;;;;23.54;63.81;101075.13;5084927;28;20051;-55
2022/08/26 11:56:05;;;;;;;19.75;4.25;;;;;;;23.44;64.58;101080.25;5086150;28;20045;-55
2022/08/26 11:58:34;;;;;;;18.48;4.15;;;;;;;23.37;64.36;101084.94;5088183;28;20089;-56